createdAt,value
2023-05-31T00:00:49.557Z,12
2023-05-31T00:01:50.566Z,12
2023-05-31T00:02:51.584Z,12
2023-05-31T00:03:52.603Z,11.9
2023-05-31T00:04:53.542Z,11.9
2023-05-31T00:05:54.594Z,11.9
2023-05-31T00:06:55.569Z,11.9
2023-05-31T00:07:56.553Z,11.9
2023-05-31T00:08:57.546Z,11.9
2023-05-31T00:09:58.559Z,11.9
2023-05-31T00:10:59.688Z,11.9
2023-05-31T00:12:00.581Z,11.9
2023-05-31T00:13:01.577Z,11.9
2023-05-31T00:14:02.548Z,11.9
2023-05-31T00:15:03.553Z,11.9
2023-05-31T00:16:04.562Z,11.9
2023-05-31T00:17:30.748Z,11.9
2023-05-31T00:18:06.696Z,11.9
2023-05-31T00:19:07.677Z,11.9
2023-05-31T00:20:08.599Z,11.9
2023-05-31T00:21:09.618Z,11.9
2023-05-31T00:22:10.560Z,11.8
2023-05-31T00:23:11.569Z,11.8
2023-05-31T00:24:12.558Z,11.8
2023-05-31T00:25:13.554Z,11.7
2023-05-31T00:26:15.058Z,11.8
2023-05-31T00:27:16.554Z,11.7
2023-05-31T00:28:17.562Z,11.7
2023-05-31T00:29:18.557Z,11.7
2023-05-31T00:30:19.554Z,11.7
2023-05-31T00:31:20.632Z,11.7
2023-05-31T00:32:21.653Z,11.7
2023-05-31T00:33:22.566Z,11.7
2023-05-31T00:34:23.561Z,11.6
2023-05-31T00:35:24.576Z,11.6
2023-05-31T00:36:25.616Z,11.7
2023-05-31T00:37:26.586Z,11.6
2023-05-31T00:38:27.566Z,11.6
2023-05-31T00:39:28.573Z,11.6
2023-05-31T00:40:29.585Z,11.6
2023-05-31T00:41:30.585Z,11.6
2023-05-31T00:42:31.574Z,11.5
2023-05-31T00:43:33.179Z,11.5
2023-05-31T00:44:34.587Z,11.5
2023-05-31T00:45:35.580Z,11.4
2023-05-31T00:46:36.573Z,11.4
2023-05-31T00:47:37.591Z,11.4
2023-05-31T00:48:38.659Z,11.4
2023-05-31T00:49:39.578Z,11.4
2023-05-31T00:50:40.573Z,11.4
2023-05-31T00:51:41.574Z,11.4
2023-05-31T00:52:42.613Z,11.4
2023-05-31T00:53:43.617Z,11.4
2023-05-31T00:54:45.077Z,11.5
2023-05-31T00:55:46.724Z,11.5
2023-05-31T00:56:47.587Z,11.5
2023-05-31T00:57:48.592Z,11.5
2023-05-31T00:58:49.576Z,11.4
2023-05-31T00:59:50.613Z,11.4
2023-05-31T01:00:51.580Z,11.4
2023-05-31T01:01:52.598Z,11.3
2023-05-31T01:02:53.608Z,11.4
2023-05-31T01:03:54.605Z,11.3
2023-05-31T01:04:55.647Z,11.3
2023-05-31T01:05:56.576Z,11.2
2023-05-31T01:06:57.581Z,11.2
2023-05-31T01:07:58.608Z,11.2
2023-05-31T01:08:59.585Z,11.2
2023-05-31T01:10:00.650Z,11.3
2023-05-31T01:11:01.680Z,11.2
2023-05-31T01:12:02.592Z,11.2
2023-05-31T01:13:03.577Z,11.2
2023-05-31T01:14:04.616Z,11.1
2023-05-31T01:15:05.640Z,11.2
2023-05-31T01:16:06.596Z,11.2
2023-05-31T01:17:07.587Z,11.2
2023-05-31T01:18:08.589Z,11.2
2023-05-31T01:19:09.596Z,11.2
2023-05-31T01:20:10.648Z,11.2
2023-05-31T01:21:11.596Z,11.3
2023-05-31T01:22:12.599Z,11.3
2023-05-31T01:23:13.629Z,11.3
2023-05-31T01:24:15.105Z,11.3
2023-05-31T01:25:16.620Z,11.3
2023-05-31T01:26:17.584Z,11.2
2023-05-31T01:27:18.591Z,11.2
2023-05-31T01:28:19.636Z,11.2
2023-05-31T01:29:20.598Z,11.2
2023-05-31T01:30:21.588Z,11.2
2023-05-31T01:31:22.618Z,11.2
2023-05-31T01:32:23.693Z,11.1
2023-05-31T01:36:31.604Z,11.1
2023-05-31T01:37:32.606Z,11.1
2023-05-31T01:38:33.590Z,11.1
2023-05-31T01:39:34.658Z,11.1
2023-05-31T01:40:35.608Z,11.1
2023-05-31T01:41:36.610Z,11
2023-05-31T01:42:37.593Z,11
2023-05-31T01:43:38.619Z,11
2023-05-31T01:44:39.598Z,11
2023-05-31T01:45:40.698Z,11
2023-05-31T01:46:41.601Z,11
2023-05-31T01:47:42.609Z,11
2023-05-31T01:48:43.631Z,11
2023-05-31T01:49:44.595Z,10.9
2023-05-31T01:50:45.621Z,10.9
2023-05-31T01:51:46.631Z,10.9
2023-05-31T01:52:47.610Z,10.8
2023-05-31T01:53:48.665Z,10.8
2023-05-31T01:54:49.614Z,10.8
2023-05-31T01:55:50.651Z,10.8
2023-05-31T01:56:51.617Z,10.8
2023-05-31T01:57:52.612Z,10.8
2023-05-31T01:58:53.645Z,10.8
2023-05-31T01:59:54.607Z,10.7
2023-05-31T02:00:55.653Z,10.8
2023-05-31T02:01:56.631Z,10.8
2023-05-31T02:02:57.675Z,10.8
2023-05-31T02:03:58.669Z,10.8
2023-05-31T02:04:59.623Z,10.8
2023-05-31T02:06:00.678Z,10.9
2023-05-31T02:07:01.636Z,10.8
2023-05-31T02:08:02.616Z,10.8
2023-05-31T02:09:03.623Z,10.8
2023-05-31T02:10:04.619Z,10.8
2023-05-31T02:11:05.646Z,10.7
2023-05-31T02:12:06.611Z,10.7
2023-05-31T02:13:07.670Z,10.6
2023-05-31T02:14:08.616Z,10.5
2023-05-31T02:15:09.624Z,10.5
2023-05-31T02:16:10.639Z,10.4
2023-05-31T02:17:11.710Z,10.5
2023-05-31T02:18:12.676Z,10.4
2023-05-31T02:19:13.626Z,10.4
2023-05-31T02:20:14.815Z,10.5
2023-05-31T02:21:15.629Z,10.5
2023-05-31T02:22:16.646Z,10.6
2023-05-31T02:23:17.710Z,10.5
2023-05-31T02:24:18.711Z,10.5
2023-05-31T02:25:19.628Z,10.5
2023-05-31T02:26:20.665Z,10.5
2023-05-31T02:27:21.634Z,10.4
2023-05-31T02:28:22.644Z,10.3
2023-05-31T02:29:23.800Z,10.2
2023-05-31T02:30:24.683Z,10.2
2023-05-31T02:31:25.724Z,10.3
2023-05-31T02:32:26.668Z,10.3
2023-05-31T02:33:27.633Z,10.3
2023-05-31T02:34:28.636Z,10.3
2023-05-31T02:35:29.662Z,10.3
2023-05-31T02:36:30.625Z,10.3
2023-05-31T02:37:31.644Z,10.4
2023-05-31T02:38:32.642Z,10.4
2023-05-31T02:39:33.639Z,10.4
2023-05-31T02:40:34.638Z,10.4
2023-05-31T02:41:35.641Z,10.4
2023-05-31T02:42:36.645Z,10.3
2023-05-31T02:43:37.632Z,10.3
2023-05-31T02:44:38.651Z,10.3
2023-05-31T02:45:39.646Z,10.2
2023-05-31T02:46:40.648Z,10.2
2023-05-31T02:47:41.645Z,10.2
2023-05-31T02:48:42.649Z,10.2
2023-05-31T02:49:43.652Z,10.2
2023-05-31T02:50:44.652Z,10.3
2023-05-31T02:51:45.637Z,10.2
2023-05-31T02:52:46.641Z,10.2
2023-05-31T02:53:47.654Z,10.2
2023-05-31T02:54:48.654Z,10.2
2023-05-31T02:55:49.636Z,10.2
2023-05-31T02:56:50.698Z,10.2
2023-05-31T02:57:51.639Z,10.2
2023-05-31T02:58:52.650Z,10.2
2023-05-31T02:59:53.639Z,10.2
2023-05-31T03:00:54.657Z,10.2
2023-05-31T03:01:55.677Z,10.1
2023-05-31T03:02:56.669Z,10.1
2023-05-31T03:03:57.659Z,10.1
2023-05-31T03:04:58.653Z,10.2
2023-05-31T03:05:59.641Z,10.2
2023-05-31T03:07:00.669Z,10.2
2023-05-31T03:08:01.655Z,10.1
2023-05-31T03:09:02.656Z,10.1
2023-05-31T03:10:03.703Z,10.1
2023-05-31T03:11:04.655Z,10.1
2023-05-31T03:12:05.671Z,10.2
2023-05-31T03:13:06.649Z,10.2
2023-05-31T03:14:07.681Z,10.2
2023-05-31T03:15:08.650Z,10.2
2023-05-31T03:16:09.705Z,10.2
2023-05-31T03:17:10.676Z,10.3
2023-05-31T03:18:11.659Z,10.3
2023-05-31T03:19:12.694Z,10.3
2023-05-31T03:20:13.700Z,10.3
2023-05-31T03:21:14.658Z,10.4
2023-05-31T03:22:15.652Z,10.4
2023-05-31T03:23:16.647Z,10.4
2023-05-31T03:24:17.701Z,10.4
2023-05-31T03:25:18.654Z,10.4
2023-05-31T03:26:19.683Z,10.4
2023-05-31T03:27:20.661Z,10.4
2023-05-31T03:28:21.653Z,10.4
2023-05-31T03:29:22.694Z,10.5
2023-05-31T03:30:23.670Z,10.5
2023-05-31T03:31:24.666Z,10.5
2023-05-31T03:32:25.682Z,10.4
2023-05-31T03:33:26.681Z,10.5
2023-05-31T03:34:27.679Z,10.5
2023-05-31T03:35:28.655Z,10.5
2023-05-31T03:36:29.663Z,10.5
2023-05-31T03:37:30.707Z,10.5
2023-05-31T03:38:31.662Z,10.5
2023-05-31T03:39:32.680Z,10.6
2023-05-31T03:40:33.693Z,10.6
2023-05-31T03:41:34.664Z,10.6
2023-05-31T03:42:35.916Z,10.6
2023-05-31T03:43:36.682Z,10.6
2023-05-31T03:44:37.669Z,10.6
2023-05-31T03:45:38.671Z,10.7
2023-05-31T03:46:39.665Z,10.7
2023-05-31T03:47:40.713Z,10.7
2023-05-31T03:48:41.679Z,10.7
2023-05-31T03:49:42.709Z,10.7
2023-05-31T03:50:43.675Z,10.7
2023-05-31T03:51:44.679Z,10.7
2023-05-31T03:52:45.675Z,10.7
2023-05-31T03:53:46.703Z,10.8
2023-05-31T03:54:47.665Z,10.8
2023-05-31T03:55:48.706Z,10.8
2023-05-31T03:56:49.679Z,10.9
2023-05-31T03:57:50.737Z,10.9
2023-05-31T03:58:51.690Z,10.9
2023-05-31T03:59:52.671Z,11
2023-05-31T04:00:53.703Z,11
2023-05-31T04:01:54.689Z,11
2023-05-31T04:03:03.868Z,11
2023-05-31T04:03:56.720Z,11.1
2023-05-31T04:04:57.714Z,11.1
2023-05-31T04:05:58.700Z,11.1
2023-05-31T04:06:59.681Z,11.2
2023-05-31T04:08:00.697Z,11.2
2023-05-31T04:09:01.693Z,11.2
2023-05-31T04:10:02.723Z,11.3
2023-05-31T04:11:03.867Z,11.3
2023-05-31T04:12:04.753Z,11.4
2023-05-31T04:13:05.683Z,11.4
2023-05-31T04:14:06.708Z,11.4
2023-05-31T04:15:07.706Z,11.5
2023-05-31T04:16:08.736Z,11.5
2023-05-31T04:17:09.708Z,11.6
2023-05-31T04:18:10.724Z,11.6
2023-05-31T04:19:11.691Z,11.7
2023-05-31T04:20:12.764Z,11.7
2023-05-31T04:21:13.692Z,11.7
2023-05-31T04:22:14.687Z,11.7
2023-05-31T04:23:15.700Z,11.8
2023-05-31T04:24:16.683Z,11.9
2023-05-31T04:25:17.703Z,11.9
2023-05-31T04:26:18.747Z,12
2023-05-31T04:27:19.698Z,12
2023-05-31T04:28:20.780Z,12.1
2023-05-31T04:29:21.694Z,12.1
2023-05-31T04:30:22.735Z,12.1
2023-05-31T04:31:25.032Z,12.2
2023-05-31T04:32:24.754Z,12.2
2023-05-31T04:33:25.715Z,12.3
2023-05-31T04:34:26.709Z,12.4
2023-05-31T04:35:27.690Z,12.4
2023-05-31T04:36:28.704Z,12.4
2023-05-31T04:37:29.712Z,12.4
2023-05-31T04:38:30.700Z,12.5
2023-05-31T04:39:31.709Z,12.5
2023-05-31T04:40:32.695Z,12.5
2023-05-31T04:41:33.719Z,12.6
2023-05-31T04:42:34.705Z,12.6
2023-05-31T04:43:35.704Z,12.7
2023-05-31T04:44:36.696Z,12.6
2023-05-31T04:45:37.734Z,12.5
2023-05-31T04:46:38.741Z,12.6
2023-05-31T04:47:39.744Z,12.7
2023-05-31T04:48:40.713Z,12.7
2023-05-31T04:49:54.024Z,12.8
2023-05-31T04:50:42.708Z,12.8
2023-05-31T04:51:43.717Z,12.9
2023-05-31T04:52:44.833Z,13
2023-05-31T04:53:45.694Z,13.1
2023-05-31T04:54:46.744Z,13.1
2023-05-31T04:55:47.716Z,13.2
2023-05-31T04:56:48.701Z,13.2
2023-05-31T04:57:49.743Z,13.3
2023-05-31T04:58:50.719Z,13.4
2023-05-31T04:59:51.708Z,13.5
2023-05-31T05:00:52.720Z,13.6
2023-05-31T05:01:53.704Z,13.5
2023-05-31T05:02:54.837Z,13.6
2023-05-31T05:03:55.747Z,13.7
2023-05-31T05:04:56.715Z,13.8
2023-05-31T05:05:57.756Z,14
2023-05-31T05:06:58.714Z,14.1
2023-05-31T05:08:00.110Z,14.1
2023-05-31T05:09:00.713Z,14
2023-05-31T05:10:01.757Z,13.9
2023-05-31T05:11:02.706Z,14
2023-05-31T05:12:03.713Z,14
2023-05-31T05:13:04.763Z,14.2
2023-05-31T05:14:05.752Z,14.3
2023-05-31T05:15:06.746Z,14.4
2023-05-31T05:16:07.722Z,14.5
2023-05-31T05:17:08.804Z,14.4
2023-05-31T05:18:09.749Z,14.4
2023-05-31T05:19:10.728Z,14.6
2023-05-31T05:20:11.809Z,14.6
2023-05-31T05:21:12.724Z,14.7
2023-05-31T05:22:13.720Z,14.9
2023-05-31T05:23:14.746Z,14.9
2023-05-31T05:24:15.715Z,15.1
2023-05-31T05:25:16.733Z,15.1
2023-05-31T05:26:17.776Z,15.2
2023-05-31T05:27:18.736Z,15.2
2023-05-31T05:28:19.750Z,15.1
2023-05-31T05:29:20.773Z,15.1
2023-05-31T05:30:21.736Z,15.2
2023-05-31T05:31:22.732Z,15.1
2023-05-31T05:32:23.730Z,15.2
2023-05-31T05:33:24.738Z,15.2
2023-05-31T05:34:25.728Z,15.1
2023-05-31T05:35:26.753Z,15
2023-05-31T05:36:27.735Z,15.1
2023-05-31T05:37:28.762Z,15.3
2023-05-31T05:38:29.734Z,15.5
2023-05-31T05:39:30.720Z,15.6
2023-05-31T05:40:31.741Z,15.6
2023-05-31T05:41:32.760Z,15.7
2023-05-31T05:42:33.737Z,15.7
2023-05-31T05:43:34.760Z,15.7
2023-05-31T05:44:35.730Z,15.8
2023-05-31T05:45:36.732Z,15.8
2023-05-31T05:46:37.768Z,15.9
2023-05-31T05:47:38.843Z,15.9
2023-05-31T05:48:39.741Z,15.9
2023-05-31T05:49:40.745Z,16
2023-05-31T05:50:46.762Z,16
2023-05-31T05:51:47.737Z,16.2
2023-05-31T05:52:48.763Z,16.4
2023-05-31T05:53:49.743Z,16.5
2023-05-31T05:54:50.816Z,16.6
2023-05-31T05:55:51.747Z,16.6
2023-05-31T05:56:53.142Z,16.7
2023-05-31T05:57:53.738Z,16.7
2023-05-31T05:58:54.756Z,16.8
2023-05-31T05:59:55.771Z,16.9
2023-05-31T06:00:56.769Z,17
2023-05-31T06:01:57.755Z,17
2023-05-31T06:02:58.783Z,17.1
2023-05-31T06:03:59.745Z,17.2
2023-05-31T06:05:00.743Z,17.2
2023-05-31T06:06:01.936Z,17.2
2023-05-31T06:07:02.764Z,17.2
2023-05-31T06:08:03.758Z,17.2
2023-05-31T06:09:04.748Z,17.2
2023-05-31T06:10:05.782Z,17.2
2023-05-31T06:11:06.716Z,17.2
2023-05-31T06:12:07.775Z,17.2
2023-05-31T06:13:08.757Z,17.2
2023-05-31T06:14:09.778Z,17.2
2023-05-31T06:15:10.779Z,17.2
2023-05-31T06:16:11.759Z,17.2
2023-05-31T06:17:12.744Z,17.2
2023-05-31T06:18:13.788Z,17.2
2023-05-31T06:19:14.760Z,17.2
2023-05-31T06:20:15.813Z,17.2
2023-05-31T06:21:16.789Z,17.3
2023-05-31T06:22:17.749Z,17.3
2023-05-31T06:23:18.782Z,17.3
2023-05-31T06:24:19.752Z,17.4
2023-05-31T06:25:20.751Z,17.4
2023-05-31T06:26:21.797Z,17.4
2023-05-31T06:27:22.772Z,17.5
2023-05-31T06:28:23.820Z,17.5
2023-05-31T06:29:24.800Z,17.4
2023-05-31T06:30:25.785Z,17.4
2023-05-31T06:31:26.836Z,17.5
2023-05-31T06:32:27.788Z,17.5
2023-05-31T06:33:28.796Z,17.5
2023-05-31T06:34:32.286Z,17.6
2023-05-31T06:35:30.798Z,17.6
2023-05-31T06:36:31.796Z,17.6
2023-05-31T06:37:32.788Z,17.6
2023-05-31T06:38:33.821Z,17.7
2023-05-31T06:39:34.791Z,17.7
2023-05-31T06:40:35.760Z,17.8
2023-05-31T06:41:36.818Z,17.9
2023-05-31T06:42:37.771Z,18
2023-05-31T06:43:38.793Z,18
2023-05-31T06:44:47.820Z,18
2023-05-31T06:45:40.794Z,18.1
2023-05-31T06:46:41.822Z,18.1
2023-05-31T06:47:42.785Z,18.1
2023-05-31T06:48:43.778Z,18.1
2023-05-31T06:49:44.778Z,18.1
2023-05-31T06:50:45.777Z,18.2
2023-05-31T06:51:46.789Z,18.3
2023-05-31T06:52:47.812Z,18.4
2023-05-31T06:53:48.762Z,18.5
2023-05-31T06:54:49.790Z,18.5
2023-05-31T06:55:50.795Z,18.5
2023-05-31T06:56:51.795Z,18.4
2023-05-31T06:57:53.256Z,18.4
2023-05-31T06:58:54.792Z,18.5
2023-05-31T06:59:55.776Z,18.5
2023-05-31T07:00:56.836Z,18.5
2023-05-31T07:01:57.816Z,18.5
2023-05-31T07:02:58.902Z,18.6
2023-05-31T07:03:59.885Z,18.7
2023-05-31T07:05:00.828Z,18.8
2023-05-31T07:06:01.829Z,18.9
2023-05-31T07:07:02.847Z,18.9
2023-05-31T07:08:03.858Z,19
2023-05-31T07:09:04.835Z,19.1
2023-05-31T07:10:05.807Z,19.1
2023-05-31T07:11:06.816Z,19.2
2023-05-31T07:12:07.806Z,19.3
2023-05-31T07:13:08.824Z,19.5
2023-05-31T07:14:09.803Z,19.6
2023-05-31T07:15:10.825Z,19.7
2023-05-31T07:16:11.805Z,19.7
2023-05-31T07:17:12.811Z,19.8
2023-05-31T07:18:13.847Z,19.9
2023-05-31T07:19:14.816Z,19.9
2023-05-31T07:20:15.850Z,19.8
2023-05-31T07:21:16.840Z,19.8
2023-05-31T07:22:17.835Z,19.9
2023-05-31T07:23:18.845Z,19.9
2023-05-31T07:24:19.830Z,19.8
2023-05-31T07:25:20.834Z,19.8
2023-05-31T07:26:21.831Z,19.8
2023-05-31T07:27:22.825Z,19.8
2023-05-31T07:28:23.793Z,19.8
2023-05-31T07:29:24.920Z,19.8
2023-05-31T07:30:25.880Z,19.9
2023-05-31T07:31:26.832Z,19.9
2023-05-31T07:32:27.906Z,20
2023-05-31T07:33:29.872Z,20.1
2023-05-31T07:34:29.830Z,20.1
2023-05-31T07:35:30.836Z,20.1
2023-05-31T07:36:31.850Z,20.1
2023-05-31T07:37:32.861Z,20.1
2023-05-31T07:38:33.854Z,20
2023-05-31T07:39:34.825Z,20
2023-05-31T07:40:35.821Z,19.9
2023-05-31T07:41:36.822Z,19.8
2023-05-31T07:42:37.853Z,19.9
2023-05-31T07:43:38.835Z,19.8
2023-05-31T07:44:39.883Z,19.8
2023-05-31T07:45:40.854Z,19.7
2023-05-31T07:46:41.867Z,19.7
2023-05-31T07:47:42.875Z,19.7
2023-05-31T07:48:43.909Z,19.7
2023-05-31T07:49:44.815Z,19.7
2023-05-31T07:50:45.836Z,19.7
2023-05-31T07:51:46.842Z,19.8
2023-05-31T07:52:47.853Z,19.9
2023-05-31T07:53:48.864Z,20
2023-05-31T07:54:49.901Z,20
2023-05-31T07:55:50.821Z,20.1
2023-05-31T07:56:51.848Z,20.1
2023-05-31T07:57:52.850Z,20.1
2023-05-31T07:58:53.873Z,20
2023-05-31T07:59:54.877Z,20
2023-05-31T08:00:55.994Z,20
2023-05-31T08:01:56.833Z,19.8
2023-05-31T08:02:57.866Z,19.7
2023-05-31T08:03:58.876Z,19.7
2023-05-31T08:04:59.848Z,19.8
2023-05-31T08:06:00.847Z,19.9
2023-05-31T08:07:01.879Z,19.9
2023-05-31T08:08:02.864Z,19.9
2023-05-31T08:09:03.856Z,19.9
2023-05-31T08:10:04.892Z,20
2023-05-31T08:11:06.067Z,20.1
2023-05-31T08:12:06.865Z,20.2
2023-05-31T08:13:07.879Z,20.2
2023-05-31T08:14:08.855Z,20.3
2023-05-31T08:15:09.878Z,20.4
2023-05-31T08:16:10.982Z,20.6
2023-05-31T08:17:11.906Z,20.7
2023-05-31T08:18:12.915Z,20.6
2023-05-31T08:19:13.864Z,20.6
2023-05-31T08:20:14.879Z,20.6
2023-05-31T08:21:15.867Z,20.5
2023-05-31T08:22:16.828Z,20.4
2023-05-31T08:23:17.993Z,20.5
2023-05-31T08:24:18.863Z,20.5
2023-05-31T08:25:19.877Z,20.6
2023-05-31T08:26:20.872Z,20.6
2023-05-31T08:27:21.863Z,20.7
2023-05-31T08:28:22.844Z,20.7
2023-05-31T08:29:23.837Z,20.7
2023-05-31T08:30:24.901Z,20.8
2023-05-31T08:31:25.900Z,20.9
2023-05-31T08:32:26.936Z,20.9
2023-05-31T08:33:27.870Z,20.9
2023-05-31T08:34:28.882Z,20.9
2023-05-31T08:35:29.877Z,21.1
2023-05-31T08:36:30.877Z,21.1
2023-05-31T08:37:31.866Z,21.3
2023-05-31T08:38:32.865Z,21.5
2023-05-31T08:39:33.872Z,21.6
2023-05-31T08:40:34.919Z,21.8
2023-05-31T08:41:35.882Z,22
2023-05-31T08:42:36.928Z,22.2
2023-05-31T08:43:37.873Z,22.3
2023-05-31T08:44:38.918Z,22.3
2023-05-31T08:45:40.539Z,22.3
2023-05-31T08:46:41.943Z,22.5
2023-05-31T08:47:42.882Z,22.6
2023-05-31T08:48:43.877Z,22.7
2023-05-31T08:49:44.902Z,22.9
2023-05-31T08:50:45.878Z,23
2023-05-31T08:51:46.872Z,23
2023-05-31T08:52:47.926Z,23
2023-05-31T08:53:48.886Z,22.9
2023-05-31T08:54:49.857Z,22.9
2023-05-31T08:55:50.851Z,22.8
2023-05-31T08:56:51.854Z,22.8
2023-05-31T08:57:52.895Z,22.8
2023-05-31T08:58:53.893Z,22.8
2023-05-31T08:59:54.873Z,22.8
2023-05-31T09:00:55.906Z,22.9
2023-05-31T09:01:56.898Z,23
2023-05-31T09:02:57.938Z,22.9
2023-05-31T09:03:58.888Z,22.9
2023-05-31T09:04:59.959Z,23
2023-05-31T09:06:00.908Z,23.1
2023-05-31T09:07:01.876Z,23.1
2023-05-31T09:08:02.888Z,23.2
2023-05-31T09:09:03.904Z,23.1
2023-05-31T09:10:04.918Z,23.2
2023-05-31T09:11:05.925Z,23.3
2023-05-31T09:12:06.894Z,23.4
2023-05-31T09:13:07.916Z,23.5
2023-05-31T09:14:08.912Z,23.6
2023-05-31T09:15:09.967Z,23.6
2023-05-31T09:16:10.910Z,23.7
2023-05-31T09:17:11.893Z,23.7
2023-05-31T09:18:12.900Z,23.6
2023-05-31T09:19:13.909Z,23.5
2023-05-31T09:20:14.953Z,23.4
2023-05-31T09:21:15.921Z,23.2
2023-05-31T09:22:16.913Z,23.1
2023-05-31T09:23:17.872Z,23.1
2023-05-31T09:24:18.920Z,23
2023-05-31T09:25:19.897Z,23
2023-05-31T09:26:20.912Z,23.1
2023-05-31T09:27:21.884Z,23.1
2023-05-31T09:28:22.905Z,23.3
2023-05-31T09:29:23.888Z,23.4
2023-05-31T09:30:24.892Z,23.5
2023-05-31T09:31:25.909Z,23.6
2023-05-31T09:32:26.932Z,23.7
2023-05-31T09:33:27.898Z,23.8
2023-05-31T09:34:28.926Z,23.9
2023-05-31T09:35:29.906Z,23.8
2023-05-31T09:36:30.927Z,23.8
2023-05-31T09:37:31.928Z,23.6
2023-05-31T09:38:32.950Z,23.5
2023-05-31T09:39:33.928Z,23.5
2023-05-31T09:40:34.913Z,23.5
2023-05-31T09:41:35.890Z,23.5
2023-05-31T09:42:36.909Z,23.6
2023-05-31T09:43:39.513Z,23.7
2023-05-31T09:44:38.911Z,23.7
2023-05-31T09:45:39.960Z,23.8
2023-05-31T09:46:40.898Z,23.7
2023-05-31T09:47:41.936Z,23.7
2023-05-31T09:48:42.938Z,23.8
2023-05-31T09:49:44.040Z,24
2023-05-31T09:50:44.889Z,24
2023-05-31T09:51:45.909Z,24
2023-05-31T09:52:46.902Z,24
2023-05-31T09:53:47.907Z,24
2023-05-31T09:54:48.923Z,23.9
2023-05-31T09:55:49.927Z,23.7
2023-05-31T09:56:50.899Z,23.6
2023-05-31T09:57:51.893Z,23.5
2023-05-31T09:58:52.882Z,23.5
2023-05-31T09:59:53.885Z,23.4
2023-05-31T10:00:54.941Z,23.3
2023-05-31T10:01:55.921Z,23.2
2023-05-31T10:02:57.002Z,23.2
2023-05-31T10:03:57.913Z,23.3
2023-05-31T10:04:58.909Z,23.4
2023-05-31T10:05:59.919Z,23.4
2023-05-31T10:07:00.902Z,23.4
2023-05-31T10:08:01.929Z,23.4
2023-05-31T10:09:02.889Z,23.2
2023-05-31T10:10:03.936Z,23.1
2023-05-31T10:11:04.895Z,23.2
2023-05-31T10:12:06.014Z,23.3
2023-05-31T10:13:06.919Z,23.4
2023-05-31T10:14:07.928Z,23.6
2023-05-31T10:15:08.937Z,23.8
2023-05-31T10:16:10.009Z,24
2023-05-31T10:17:10.925Z,24.2
2023-05-31T10:18:11.929Z,24.4
2023-05-31T10:19:12.912Z,24.5
2023-05-31T10:20:13.962Z,24.6
2023-05-31T10:21:14.957Z,24.7
2023-05-31T10:22:15.994Z,24.8
2023-05-31T10:23:16.913Z,24.9
2023-05-31T10:24:17.945Z,25
2023-05-31T10:25:18.933Z,25.2
2023-05-31T10:26:19.964Z,25.3
2023-05-31T10:27:20.936Z,25.4
2023-05-31T10:28:22.041Z,25.5
2023-05-31T10:29:22.936Z,25.5
2023-05-31T10:30:23.947Z,25.4
2023-05-31T10:31:24.992Z,25.4
2023-05-31T10:32:25.966Z,25.2
2023-05-31T10:33:26.939Z,25.1
2023-05-31T10:34:27.944Z,25
2023-05-31T10:35:29.933Z,25
2023-05-31T10:36:30.968Z,24.9
2023-05-31T10:37:31.954Z,24.6
2023-05-31T10:38:32.960Z,24.6
2023-05-31T10:39:34.092Z,24.7
2023-05-31T10:40:34.965Z,24.8
2023-05-31T10:41:35.990Z,25
2023-05-31T10:42:41.963Z,25.1
2023-05-31T10:43:42.969Z,25.2
2023-05-31T10:44:43.948Z,25.1
2023-05-31T10:45:44.969Z,25
2023-05-31T10:46:46.002Z,25.1
2023-05-31T10:47:47.064Z,25.2
2023-05-31T10:48:47.940Z,25.4
2023-05-31T10:49:48.970Z,25.6
2023-05-31T10:50:49.964Z,25.8
2023-05-31T10:51:50.946Z,26
2023-05-31T10:52:51.936Z,26.2
2023-05-31T10:53:52.915Z,26.4
2023-05-31T10:54:54.661Z,26.4
2023-05-31T10:55:55.960Z,26.4
2023-05-31T10:56:56.970Z,26.2
2023-05-31T10:57:58.052Z,26
2023-05-31T10:58:58.943Z,25.9
2023-05-31T10:59:59.970Z,25.9
2023-05-31T11:01:01.100Z,25.8
2023-05-31T11:02:01.985Z,25.8
2023-05-31T11:03:03.001Z,25.7
2023-05-31T11:04:04.065Z,25.6
2023-05-31T11:05:05.011Z,25.5
2023-05-31T11:06:05.963Z,25.5
2023-05-31T11:07:06.944Z,25.5
2023-05-31T11:08:09.221Z,25.6
2023-05-31T11:09:08.917Z,25.6
2023-05-31T11:10:09.969Z,25.8
2023-05-31T11:11:10.957Z,26
2023-05-31T11:12:11.952Z,26.2
2023-05-31T11:13:13.007Z,26.3
2023-05-31T11:14:14.007Z,26.3
2023-05-31T11:15:14.990Z,26.3
2023-05-31T11:16:16.057Z,26.3
2023-05-31T11:17:17.376Z,26.4
2023-05-31T11:18:17.956Z,26.6
2023-05-31T11:19:18.993Z,26.7
2023-05-31T11:20:19.947Z,26.7
2023-05-31T11:21:20.985Z,26.7
2023-05-31T11:22:21.953Z,26.9
2023-05-31T11:23:22.983Z,26.9
2023-05-31T11:24:23.962Z,26.8
2023-05-31T11:25:25.026Z,26.7
2023-05-31T11:26:25.963Z,26.4
2023-05-31T11:27:26.931Z,26.2
2023-05-31T11:28:28.017Z,26.1
2023-05-31T11:29:28.944Z,26
2023-05-31T11:30:29.948Z,26
2023-05-31T11:31:30.974Z,25.7
2023-05-31T11:32:31.972Z,25.6
2023-05-31T11:33:33.007Z,25.6
2023-05-31T11:34:34.026Z,25.6
2023-05-31T11:35:34.955Z,25.6
2023-05-31T11:36:35.960Z,25.6
2023-05-31T11:37:36.947Z,25.6
2023-05-31T11:38:37.999Z,25.6
2023-05-31T11:39:38.956Z,25.6
2023-05-31T11:40:39.964Z,25.7
2023-05-31T11:41:40.999Z,25.7
2023-05-31T11:42:41.973Z,25.9
2023-05-31T11:43:42.961Z,25.9
2023-05-31T11:44:43.961Z,25.9
2023-05-31T11:45:44.998Z,26
2023-05-31T11:46:46.004Z,26.2
2023-05-31T11:47:46.995Z,26.4
2023-05-31T11:48:47.987Z,26.5
2023-05-31T11:49:48.998Z,26.7
2023-05-31T11:50:49.955Z,26.8
2023-05-31T11:51:50.986Z,26.8
2023-05-31T11:52:51.963Z,26.7
2023-05-31T11:53:52.971Z,26.6
2023-05-31T11:54:54.033Z,26.6
2023-05-31T11:55:54.966Z,26.7
2023-05-31T11:56:55.961Z,26.8
2023-05-31T11:57:56.971Z,26.9
2023-05-31T11:58:57.964Z,26.9
2023-05-31T11:59:58.973Z,26.9
2023-05-31T12:01:00.202Z,26.9
2023-05-31T12:02:00.975Z,26.9
2023-05-31T12:03:02.099Z,26.7
2023-05-31T12:04:03.029Z,26.5
2023-05-31T12:05:04.013Z,26.5
2023-05-31T12:06:04.988Z,26.5
2023-05-31T12:07:05.991Z,26.5
2023-05-31T12:08:06.966Z,26.6
2023-05-31T12:09:07.975Z,26.6
2023-05-31T12:10:09.003Z,26.5
2023-05-31T12:11:09.981Z,26.4
2023-05-31T12:12:10.994Z,26.4
2023-05-31T12:13:11.998Z,26.5
2023-05-31T12:14:13.006Z,26.2
2023-05-31T12:15:14.011Z,26
2023-05-31T12:16:15.034Z,26
2023-05-31T12:17:16.136Z,26.1
2023-05-31T12:18:16.967Z,26.3
2023-05-31T12:19:17.979Z,26.6
2023-05-31T12:20:19.026Z,27
2023-05-31T12:21:19.969Z,27.4
2023-05-31T12:22:20.987Z,27.6
2023-05-31T12:23:21.972Z,27.9
2023-05-31T12:24:23.021Z,28
2023-05-31T12:25:24.002Z,28
2023-05-31T12:26:24.997Z,27.8
2023-05-31T12:27:37.260Z,27.7
2023-05-31T12:28:26.993Z,27.7
2023-05-31T12:29:27.972Z,27.4
2023-05-31T12:30:39.768Z,27.1
2023-05-31T12:31:30.066Z,27
2023-05-31T12:32:31.056Z,27.1
2023-05-31T12:33:32.036Z,27.2
2023-05-31T12:34:32.994Z,27.5
2023-05-31T12:35:34.028Z,27.7
2023-05-31T12:36:35.025Z,27.9
2023-05-31T12:37:36.049Z,28
2023-05-31T12:38:37.026Z,28.2
2023-05-31T12:39:37.986Z,28.3
2023-05-31T12:40:39.023Z,28.5
2023-05-31T12:41:40.014Z,28.7
2023-05-31T12:42:40.998Z,28.9
2023-05-31T12:43:41.997Z,28.9
2023-05-31T12:44:43.001Z,29.1
2023-05-31T12:45:44.109Z,29.2
2023-05-31T12:46:44.991Z,29.3
2023-05-31T12:47:46.034Z,29.3
2023-05-31T12:48:47.099Z,29.3
2023-05-31T12:49:48.005Z,29.4
2023-05-31T12:50:49.036Z,29.3
2023-05-31T12:51:50.036Z,29.3
2023-05-31T12:52:50.995Z,29.4
2023-05-31T12:53:52.030Z,29.5
2023-05-31T12:54:53.011Z,29.7
2023-05-31T12:55:54.141Z,29.7
2023-05-31T12:56:54.993Z,29.9
2023-05-31T12:57:56.003Z,30
2023-05-31T12:58:57.001Z,30.1
2023-05-31T12:59:58.014Z,30.2
2023-05-31T13:00:59.230Z,30.2
2023-05-31T13:02:00.061Z,30.1
2023-05-31T13:03:01.125Z,30
2023-05-31T13:04:02.029Z,30
2023-05-31T13:05:03.038Z,29.9
2023-05-31T13:06:04.128Z,29.7
2023-05-31T13:07:05.005Z,29.5
2023-05-31T13:08:06.055Z,29.4
2023-05-31T13:09:07.027Z,29.4
2023-05-31T13:10:10.490Z,29.3
2023-05-31T13:11:09.021Z,29.2
2023-05-31T13:12:10.021Z,29.2
2023-05-31T13:13:11.034Z,29.2
2023-05-31T13:14:12.013Z,29.3
2023-05-31T13:15:13.051Z,29.4
2023-05-31T13:16:14.098Z,29.5
2023-05-31T13:17:15.067Z,29.5
2023-05-31T13:18:16.286Z,29.5
2023-05-31T13:19:17.035Z,29.4
2023-05-31T13:20:18.110Z,29.4
2023-05-31T13:21:19.038Z,29.5
2023-05-31T13:22:20.439Z,29.7
2023-05-31T13:23:21.041Z,29.9
2023-05-31T13:25:01.864Z,29.9
2023-05-31T13:26:02.841Z,30.3
2023-05-31T13:27:03.870Z,30.5
2023-05-31T13:28:06.186Z,30.7
2023-05-31T13:29:07.806Z,30.9
2023-05-31T13:30:08.883Z,31.1
2023-05-31T13:31:09.977Z,31.1
2023-05-31T13:32:10.829Z,31
2023-05-31T13:33:11.839Z,30.9
2023-05-31T13:34:12.806Z,30.5
2023-05-31T13:35:13.931Z,30
2023-05-31T13:36:14.826Z,29.8
2023-05-31T13:37:16.274Z,29.7
2023-05-31T13:38:17.822Z,29.7
2023-05-31T13:39:18.874Z,29.7
2023-05-31T13:40:19.845Z,29.8
2023-05-31T13:41:20.857Z,29.9